Vanquish — PHCU — position and weather

sailwx.info

Track history (hours):
 
Tides and Currents Weather Stations Pressure Air Temp Water Temp Dewpoint Dewpoint Depression Visibility Wind Speed Wind Dir Waves Ship Positions

Vanquish

Last reported at 2017-Jan-21 00:29 UTC. Time now 2017-Jan-21 21:33 UTC.
Position N 51°27' W 003°09'.

MMSI: 246138952.

Date/timePositionNaut miles runAvg speedWind from/ knotsBaromVisibWave heightAir tempDewpointWater temp
2017-Jan-21 00:29N 51°27' W 003°09'3 3.2
2017-Jan-20 23:28N 51°24' W 003°09'1111.7
2017-Jan-20 22:33N 51°28' W 002°53'7 6.9
2017-Jan-20 21:33N 51°30' W 002°43'0 0.3
2017-Jan-20 20:33N 51°30' W 002°42'0 0.0
2017-Jan-20 19:33N 51°30' W 002°42'0 0.0
2017-Jan-20 18:33N 51°30' W 002°42'0 0.0
2017-Jan-20 17:33N 51°30' W 002°42'0 0.0
2017-Jan-20 16:33N 51°30' W 002°42'0 0.0
2017-Jan-20 15:33N 51°30' W 002°42'0 0.0
2017-Jan-20 14:33N 51°30' W 002°42'0 0.0
2017-Jan-20 13:33N 51°30' W 002°42'0 0.0
2017-Jan-20 12:33N 51°30' W 002°42'0 0.0
2017-Jan-20 11:33N 51°30' W 002°42'0 0.0
2017-Jan-20 10:33N 51°30' W 002°42'0 0.0
2017-Jan-20 09:33N 51°30' W 002°42'0 0.0
2017-Jan-20 08:33N 51°30' W 002°42'0 0.0
2017-Jan-20 07:33N 51°30' W 002°42'0 0.0
2017-Jan-20 06:33N 51°30' W 002°42'0 0.0
2017-Jan-20 05:33N 51°30' W 002°42'0 0.0
2017-Jan-20 04:33N 51°30' W 002°42'0 0.0
2017-Jan-20 03:33N 51°30' W 002°42'0 0.0
2017-Jan-20 02:33N 51°30' W 002°42'0 0.0
2017-Jan-20 01:33N 51°30' W 002°42'0 0.0
2017-Jan-20 00:33N 51°30' W 002°42'0 0.0
2017-Jan-19 23:33N 51°30' W 002°42'0 0.0
2017-Jan-19 22:33N 51°30' W 002°42'0 0.5
2017-Jan-19 21:33N 51°30' W 002°43'1211.8
2017-Jan-19 20:34N 51°26' W 003°01'1413.9
2017-Jan-19 19:33N 51°21' W 003°21'1614.3
2017-Jan-19 18:25N 51°22' W 003°47'1213.4
2017-Jan-19 17:32N 51°23' W 004°06'1312.7
2017-Jan-19 16:32N 51°24' W 004°27'1412.6
2017-Jan-19 15:25N 51°26' W 004°49'56 9.4
2017-Jan-19 09:30N 52°07' W 005°50'1914.2
2017-Jan-19 08:08N 52°26' W 005°46'2515.4
2017-Jan-19 06:30N 52°51' W 005°42'5814.4
2017-Jan-19 02:28N 53°49' W 005°54'1213.3
2017-Jan-19 01:33N 54°00' W 006°02'4 0.4
2017-Jan-18 15:25N 54°02' W 006°08'1112.2
2017-Jan-18 14:30N 53°53' W 005°58'18111.2
2017-Jan-17 22:19N 51°25' W 003°04'1013.0
2017-Jan-17 21:33N 51°29' W 002°49'4 4.3
2017-Jan-17 20:33N 51°30' W 002°42'0 0.0
2017-Jan-17 19:33N 51°30' W 002°42'0 0.0
2017-Jan-17 18:33N 51°30' W 002°42'0 0.0
2017-Jan-17 17:33N 51°30' W 002°42'0 0.0
2017-Jan-17 16:33N 51°30' W 002°42'0 0.0
2017-Jan-17 15:33N 51°30' W 002°42'0 0.0
2017-Jan-17 14:33N 51°30' W 002°42'0 0.0
2017-Jan-17 13:33N 51°30' W 002°42'0 0.0
2017-Jan-17 12:33N 51°30' W 002°42'0 0.0
2017-Jan-17 11:33N 51°30' W 002°42'0 0.0
2017-Jan-17 10:33N 51°30' W 002°42'0 0.0
2017-Jan-17 09:33N 51°30' W 002°42'0 0.0
2017-Jan-17 08:33N 51°30' W 002°42'0 0.0
2017-Jan-17 07:33N 51°30' W 002°42'0 0.0
2017-Jan-17 06:33N 51°30' W 002°42'0 0.0
2017-Jan-17 05:33N 51°30' W 002°42'0 0.0
2017-Jan-17 04:33N 51°30' W 002°42'0 0.0
2017-Jan-17 03:33N 51°30' W 002°42'0 0.0
2017-Jan-17 02:33N 51°30' W 002°42'0 0.0
2017-Jan-17 01:33N 51°30' W 002°42'0 0.0
2017-Jan-17 00:33N 51°30' W 002°42'0 0.0
2017-Jan-16 23:33N 51°30' W 002°42'0 0.0
2017-Jan-16 22:33N 51°30' W 002°42'0 0.0
2017-Jan-16 21:33N 51°30' W 002°42'0 0.3
2017-Jan-16 20:33N 51°30' W 002°43'6 6.1
2017-Jan-16 19:34N 51°28' W 002°52'1815.0
2017-Jan-16 18:23N 51°21' W 003°18'1214.1
2017-Jan-16 17:33N 51°21' W 003°36'1212.1
2017-Jan-16 16:33N 51°21' W 003°56'1312.8
2017-Jan-16 15:33N 51°21' W 004°17'2411.6
2017-Jan-16 13:30N 51°23' W 004°54'54 8.6
2017-Jan-16 07:15N 52°04' W 005°50'1014.1
2017-Jan-16 06:34N 52°14' W 005°49'1615.2
2017-Jan-16 05:32N 52°29' W 005°46'8814.7
2017-Jan-15 23:33N 53°57' W 005°59'7 0.3
2017-Jan-14 18:05N 54°02' W 006°08'4 8.3
2017-Jan-14 17:33N 53°60' W 006°02'1211.5
2017-Jan-14 16:30N 53°48' W 005°56'7610.8
2017-Jan-14 09:28N 52°32' W 005°51'1314.3
2017-Jan-14 08:32N 52°19' W 005°55'1613.6
2017-Jan-14 07:22N 52°05' W 006°07'4213.7
2017-Jan-14 04:17N 51°41' W 007°04'8310.3
2017-Jan-13 20:14N 50°28' W 006°02'6 9.4
2017-Jan-13 19:33N 50°23' W 005°57'9 8.5
2017-Jan-13 18:33N 50°14' W 005°55'9 8.1
2017-Jan-13 17:25N 50°05' W 005°54'34 7.0
2017-Jan-13 12:33N 49°56' W 005°03'1413.0
2017-Jan-13 11:31N 50°09' W 004°56'1 1.0
2017-Jan-13 10:32N 50°10' W 004°56'0 0.0
2017-Jan-13 09:32N 50°10' W 004°56'0 0.0
2017-Jan-13 08:32N 50°10' W 004°56'0 0.0
2017-Jan-13 07:26N 50°10' W 004°56'0 0.0
2017-Jan-13 06:32N 50°10' W 004°56'0 0.0
2017-Jan-13 05:32N 50°10' W 004°56'0 0.0
2017-Jan-13 04:32N 50°10' W 004°56'0 0.0
2017-Jan-13 03:32N 50°10' W 004°56'0 0.0
2017-Jan-13 02:32N 50°10' W 004°56'0 0.0
2017-Jan-12 10:15N 50°10' W 004°56'710.6
2017-Jan-12 09:33N 50°09' W 004°45'1211.7
2017-Jan-12 08:34N 50°07' W 004°27'1212.1
2017-Jan-12 07:34N 50°06' W 004°08'1110.8
2017-Jan-12 06:33N 50°07' W 003°51'10 9.1
2017-Jan-12 05:26N 50°08' W 003°36'19 9.8
2017-Jan-12 03:30N 50°17' W 003°10'7111.9
2017-Jan-11 21:31N 50°23' W 001°19'23 6.7
2017-Jan-11 18:09N 50°25' W 000°43'4 7.0
2017-Jan-11 17:33N 50°26' W 000°37'9 9.1
2017-Jan-11 16:33N 50°28' W 000°23'1111.3
2017-Jan-11 15:33N 50°30' W 000°06'1212.0
2017-Jan-11 14:33N 50°33' E 000°13'1212.3
2017-Jan-11 13:33N 50°36' E 000°31'1111.1
2017-Jan-11 12:33N 50°42' E 000°47'1410.1
2017-Jan-11 11:11N 50°51' E 001°03'6 9.5
2017-Jan-11 10:33N 50°55' E 001°10'9 9.0
2017-Jan-11 09:33N 51°01' E 001°21'1010.2
2017-Jan-11 08:33N 51°07' E 001°34'1212.0
2017-Jan-11 07:33N 51°16' E 001°47'1313.3
2017-Jan-11 06:33N 51°28' E 001°57'1212.4
2017-Jan-11 05:33N 51°37' E 002°10'  
Track history (hours):
 
Tides and Currents Weather Stations Pressure Air Temp Water Temp Dewpoint Dewpoint Depression Visibility Wind Speed Wind Dir Waves Ship Positions

Vanquish

Last reported at 2017-Jan-21 00:29 UTC. Time now 2017-Jan-21 21:33 UTC.
Position N 51°27' W 003°09'.

MMSI: 246138952.

Date/timePositionNaut miles runAvg speedWind from/ knotsBaromVisibWave heightAir tempDewpointWater temp
2017-Jan-21 00:29N 51°27' W 003°09'3 3.2
2017-Jan-20 23:28N 51°24' W 003°09'1111.7
2017-Jan-20 22:33N 51°28' W 002°53'7 6.9
2017-Jan-20 21:33N 51°30' W 002°43'0 0.3
2017-Jan-20 20:33N 51°30' W 002°42'0 0.0
2017-Jan-20 19:33N 51°30' W 002°42'0 0.0
2017-Jan-20 18:33N 51°30' W 002°42'0 0.0
2017-Jan-20 17:33N 51°30' W 002°42'0 0.0
2017-Jan-20 16:33N 51°30' W 002°42'0 0.0
2017-Jan-20 15:33N 51°30' W 002°42'0 0.0
2017-Jan-20 14:33N 51°30' W 002°42'0 0.0
2017-Jan-20 13:33N 51°30' W 002°42'0 0.0
2017-Jan-20 12:33N 51°30' W 002°42'0 0.0
2017-Jan-20 11:33N 51°30' W 002°42'0 0.0
2017-Jan-20 10:33N 51°30' W 002°42'0 0.0
2017-Jan-20 09:33N 51°30' W 002°42'0 0.0
2017-Jan-20 08:33N 51°30' W 002°42'0 0.0
2017-Jan-20 07:33N 51°30' W 002°42'0 0.0
2017-Jan-20 06:33N 51°30' W 002°42'0 0.0
2017-Jan-20 05:33N 51°30' W 002°42'0 0.0
2017-Jan-20 04:33N 51°30' W 002°42'0 0.0
2017-Jan-20 03:33N 51°30' W 002°42'0 0.0
2017-Jan-20 02:33N 51°30' W 002°42'0 0.0
2017-Jan-20 01:33N 51°30' W 002°42'0 0.0
2017-Jan-20 00:33N 51°30' W 002°42'0 0.0
2017-Jan-19 23:33N 51°30' W 002°42'0 0.0
2017-Jan-19 22:33N 51°30' W 002°42'0 0.5
2017-Jan-19 21:33N 51°30' W 002°43'1211.8
2017-Jan-19 20:34N 51°26' W 003°01'1413.9
2017-Jan-19 19:33N 51°21' W 003°21'1614.3
2017-Jan-19 18:25N 51°22' W 003°47'1213.4
2017-Jan-19 17:32N 51°23' W 004°06'1312.7
2017-Jan-19 16:32N 51°24' W 004°27'1412.6
2017-Jan-19 15:25N 51°26' W 004°49'56 9.4
2017-Jan-19 09:30N 52°07' W 005°50'1914.2
2017-Jan-19 08:08N 52°26' W 005°46'2515.4
2017-Jan-19 06:30N 52°51' W 005°42'5814.4
2017-Jan-19 02:28N 53°49' W 005°54'1213.3
2017-Jan-19 01:33N 54°00' W 006°02'4 0.4
2017-Jan-18 15:25N 54°02' W 006°08'1112.2
2017-Jan-18 14:30N 53°53' W 005°58'18111.2
2017-Jan-17 22:19N 51°25' W 003°04'1013.0
2017-Jan-17 21:33N 51°29' W 002°49'4 4.3
2017-Jan-17 20:33N 51°30' W 002°42'0 0.0
2017-Jan-17 19:33N 51°30' W 002°42'0 0.0
2017-Jan-17 18:33N 51°30' W 002°42'0 0.0
2017-Jan-17 17:33N 51°30' W 002°42'0 0.0
2017-Jan-17 16:33N 51°30' W 002°42'0 0.0
2017-Jan-17 15:33N 51°30' W 002°42'0 0.0
2017-Jan-17 14:33N 51°30' W 002°42'0 0.0
2017-Jan-17 13:33N 51°30' W 002°42'0 0.0
2017-Jan-17 12:33N 51°30' W 002°42'0 0.0
2017-Jan-17 11:33N 51°30' W 002°42'0 0.0
2017-Jan-17 10:33N 51°30' W 002°42'0 0.0
2017-Jan-17 09:33N 51°30' W 002°42'0 0.0
2017-Jan-17 08:33N 51°30' W 002°42'0 0.0
2017-Jan-17 07:33N 51°30' W 002°42'0 0.0
2017-Jan-17 06:33N 51°30' W 002°42'0 0.0
2017-Jan-17 05:33N 51°30' W 002°42'0 0.0
2017-Jan-17 04:33N 51°30' W 002°42'0 0.0
2017-Jan-17 03:33N 51°30' W 002°42'0 0.0
2017-Jan-17 02:33N 51°30' W 002°42'0 0.0
2017-Jan-17 01:33N 51°30' W 002°42'0 0.0
2017-Jan-17 00:33N 51°30' W 002°42'0 0.0
2017-Jan-16 23:33N 51°30' W 002°42'0 0.0
2017-Jan-16 22:33N 51°30' W 002°42'0 0.0
2017-Jan-16 21:33N 51°30' W 002°42'0 0.3
2017-Jan-16 20:33N 51°30' W 002°43'6 6.1
2017-Jan-16 19:34N 51°28' W 002°52'1815.0
2017-Jan-16 18:23N 51°21' W 003°18'1214.1
2017-Jan-16 17:33N 51°21' W 003°36'1212.1
2017-Jan-16 16:33N 51°21' W 003°56'1312.8
2017-Jan-16 15:33N 51°21' W 004°17'2411.6
2017-Jan-16 13:30N 51°23' W 004°54'54 8.6
2017-Jan-16 07:15N 52°04' W 005°50'1014.1
2017-Jan-16 06:34N 52°14' W 005°49'1615.2
2017-Jan-16 05:32N 52°29' W 005°46'8814.7
2017-Jan-15 23:33N 53°57' W 005°59'7 0.3
2017-Jan-14 18:05N 54°02' W 006°08'4 8.3
2017-Jan-14 17:33N 53°60' W 006°02'1211.5
2017-Jan-14 16:30N 53°48' W 005°56'7610.8
2017-Jan-14 09:28N 52°32' W 005°51'1314.3
2017-Jan-14 08:32N 52°19' W 005°55'1613.6
2017-Jan-14 07:22N 52°05' W 006°07'4213.7
2017-Jan-14 04:17N 51°41' W 007°04'8310.3
2017-Jan-13 20:14N 50°28' W 006°02'6 9.4
2017-Jan-13 19:33N 50°23' W 005°57'9 8.5
2017-Jan-13 18:33N 50°14' W 005°55'9 8.1
2017-Jan-13 17:25N 50°05' W 005°54'34 7.0
2017-Jan-13 12:33N 49°56' W 005°03'1413.0
2017-Jan-13 11:31N 50°09' W 004°56'1 1.0
2017-Jan-13 10:32N 50°10' W 004°56'0 0.0
2017-Jan-13 09:32N 50°10' W 004°56'0 0.0
2017-Jan-13 08:32N 50°10' W 004°56'0 0.0
2017-Jan-13 07:26N 50°10' W 004°56'0 0.0
2017-Jan-13 06:32N 50°10' W 004°56'0 0.0
2017-Jan-13 05:32N 50°10' W 004°56'0 0.0
2017-Jan-13 04:32N 50°10' W 004°56'0 0.0
2017-Jan-13 03:32N 50°10' W 004°56'0 0.0
2017-Jan-13 02:32N 50°10' W 004°56'0 0.0
2017-Jan-12 10:15N 50°10' W 004°56'710.6
2017-Jan-12 09:33N 50°09' W 004°45'1211.7
2017-Jan-12 08:34N 50°07' W 004°27'1212.1
2017-Jan-12 07:34N 50°06' W 004°08'1110.8
2017-Jan-12 06:33N 50°07' W 003°51'10 9.1
2017-Jan-12 05:26N 50°08' W 003°36'19 9.8
2017-Jan-12 03:30N 50°17' W 003°10'7111.9
2017-Jan-11 21:31N 50°23' W 001°19'23 6.7
2017-Jan-11 18:09N 50°25' W 000°43'4 7.0
2017-Jan-11 17:33N 50°26' W 000°37'9 9.1
2017-Jan-11 16:33N 50°28' W 000°23'1111.3
2017-Jan-11 15:33N 50°30' W 000°06'1212.0
2017-Jan-11 14:33N 50°33' E 000°13'1212.3
2017-Jan-11 13:33N 50°36' E 000°31'1111.1
2017-Jan-11 12:33N 50°42' E 000°47'1410.1
2017-Jan-11 11:11N 50°51' E 001°03'6 9.5
2017-Jan-11 10:33N 50°55' E 001°10'9 9.0
2017-Jan-11 09:33N 51°01' E 001°21'1010.2
2017-Jan-11 08:33N 51°07' E 001°34'1212.0
2017-Jan-11 07:33N 51°16' E 001°47'1313.3
2017-Jan-11 06:33N 51°28' E 001°57'1212.4
2017-Jan-11 05:33N 51°37' E 002°10'  

Dump ship's entire track history